createdAt,value
2023-05-07T00:00:19.922Z,7.47
2023-05-07T00:02:43.920Z,6.90
2023-05-07T00:05:10.214Z,5.82
2023-05-07T00:07:33.713Z,6.10
2023-05-07T00:09:57.099Z,8.48
2023-05-07T00:12:20.378Z,6.25
2023-05-07T00:14:43.942Z,7.22
2023-05-07T00:17:07.147Z,6.22
2023-05-07T00:19:30.531Z,5.53
2023-05-07T00:21:56.909Z,6.25
2023-05-07T00:24:20.269Z,5.68
2023-05-07T00:26:43.563Z,7.93
2023-05-07T00:29:06.854Z,4.63
2023-05-07T00:31:30.126Z,6.47
2023-05-07T00:33:53.414Z,7.38
2023-05-07T00:36:16.785Z,6.72
2023-05-07T00:38:41.525Z,8.68
2023-05-07T00:41:04.873Z,6.93
2023-05-07T00:43:28.519Z,6.47
2023-05-07T00:45:51.961Z,6.85
2023-05-07T00:48:15.702Z,6.78
2023-05-07T00:50:39.037Z,7.55
2023-05-07T00:53:02.967Z,7.57
2023-05-07T00:55:27.952Z,7.10
2023-05-07T00:57:52.849Z,8.25
2023-05-07T01:00:16.652Z,7.53
2023-05-07T01:02:41.040Z,5.22
2023-05-07T01:05:06.658Z,5.93
2023-05-07T01:07:32.200Z,6.00
2023-05-07T01:09:55.743Z,9.07
2023-05-07T01:12:20.479Z,6.95
2023-05-07T01:14:44.025Z,5.60
2023-05-07T01:17:07.680Z,5.85
2023-05-07T01:19:33.251Z,7.97
2023-05-07T01:22:05.458Z,8.25
2023-05-07T01:24:38.703Z,7.55
2023-05-07T01:27:03.397Z,6.15
2023-05-07T01:29:29.507Z,6.10
2023-05-07T01:31:54.853Z,7.43
2023-05-07T01:34:20.284Z,5.93
2023-05-07T01:36:46.476Z,5.95
2023-05-07T01:39:11.659Z,5.55
2023-05-07T01:41:36.849Z,7.05
2023-05-07T01:44:01.476Z,5.88
2023-05-07T01:46:25.209Z,6.38
2023-05-07T01:48:48.956Z,6.03
2023-05-07T01:51:12.159Z,6.22
2023-05-07T01:53:38.500Z,6.60
2023-05-07T01:56:02.465Z,6.10
2023-05-07T01:58:28.662Z,6.35
2023-05-07T02:00:52.742Z,6.53
2023-05-07T02:03:16.123Z,6.28
2023-05-07T02:05:48.538Z,4.75
2023-05-07T02:08:29.204Z,7.30
2023-05-07T02:10:54.996Z,7.80
2023-05-07T02:13:20.917Z,9.73
2023-05-07T02:15:50.229Z,8.25
2023-05-07T02:18:13.833Z,8.18
2023-05-07T02:20:37.277Z,9.93
2023-05-07T02:23:01.330Z,6.07
2023-05-07T02:25:26.631Z,8.85
2023-05-07T02:27:49.970Z,7.70
2023-05-07T02:30:14.979Z,5.93
2023-05-07T02:32:40.083Z,6.63
2023-05-07T02:35:03.368Z,6.25
2023-05-07T02:37:26.713Z,6.90
2023-05-07T02:39:50.162Z,8.93
2023-05-07T02:42:13.839Z,8.90
2023-05-07T02:44:37.043Z,5.90
2023-05-07T02:47:00.424Z,6.57
2023-05-07T02:49:25.414Z,8.70
2023-05-07T02:51:48.832Z,7.72
2023-05-07T02:54:18.930Z,7.22
2023-05-07T02:56:42.224Z,6.75
2023-05-07T02:59:05.563Z,6.95
2023-05-07T03:01:33.935Z,5.90
2023-05-07T03:04:02.687Z,6.57
2023-05-07T03:06:27.491Z,6.68
2023-05-07T03:08:51.162Z,5.47
2023-05-07T03:11:14.578Z,5.88
2023-05-07T03:13:37.955Z,8.25
2023-05-07T03:16:01.333Z,5.20
2023-05-07T03:18:24.787Z,5.78
2023-05-07T03:20:50.372Z,6.65
2023-05-07T03:23:16.378Z,5.90
2023-05-07T03:25:39.701Z,6.20
2023-05-07T03:28:03.028Z,6.00
2023-05-07T03:30:35.136Z,6.07
2023-05-07T03:32:58.538Z,9.60
2023-05-07T03:35:22.113Z,6.68
2023-05-07T03:37:45.407Z,8.30
2023-05-07T03:40:13.637Z,7.97
2023-05-07T03:42:44.331Z,9.57
2023-05-07T03:45:10.945Z,7.72
2023-05-07T03:47:37.175Z,8.38
2023-05-07T03:50:00.845Z,7.03
2023-05-07T03:52:26.870Z,6.75
2023-05-07T03:54:52.884Z,8.38
2023-05-07T03:57:17.548Z,5.97
2023-05-07T03:59:41.601Z,6.78
2023-05-07T04:02:05.950Z,6.38
2023-05-07T04:04:33.769Z,7.82
2023-05-07T04:06:57.559Z,8.23
2023-05-07T04:09:21.001Z,5.88
2023-05-07T04:11:45.396Z,6.45
2023-05-07T04:14:10.142Z,6.13
2023-05-07T04:16:34.490Z,7.82
2023-05-07T04:18:57.776Z,7.68
2023-05-07T04:21:23.129Z,5.32
2023-05-07T04:23:48.636Z,7.45
2023-05-07T04:26:12.090Z,4.97
2023-05-07T04:28:38.785Z,7.32
2023-05-07T04:31:03.381Z,5.88
2023-05-07T04:33:28.114Z,6.53
2023-05-07T04:35:53.627Z,6.90
2023-05-07T04:38:17.452Z,6.30
2023-05-07T04:40:42.184Z,6.05
2023-05-07T04:43:08.423Z,9.23
2023-05-07T04:45:37.706Z,7.35
2023-05-07T04:48:02.621Z,6.20
2023-05-07T04:50:27.562Z,6.53
2023-05-07T04:52:55.300Z,5.97
2023-05-07T04:55:20.811Z,7.25
2023-05-07T04:57:44.270Z,7.15
2023-05-07T05:00:11.158Z,6.38
2023-05-07T05:02:36.213Z,5.18
2023-05-07T05:05:02.496Z,8.45
2023-05-07T05:07:26.020Z,7.30
2023-05-07T05:09:49.350Z,8.15
2023-05-07T05:12:13.424Z,6.32
2023-05-07T05:14:37.954Z,7.20
2023-05-07T05:17:01.686Z,9.75
2023-05-07T05:19:25.186Z,5.15
2023-05-07T05:21:49.899Z,5.85
2023-05-07T05:24:13.222Z,10.77
2023-05-07T05:26:36.856Z,6.72
2023-05-07T05:29:00.173Z,8.38
2023-05-07T05:31:25.972Z,8.73
2023-05-07T05:33:49.500Z,9.43
2023-05-07T05:36:14.017Z,5.82
2023-05-07T05:38:39.775Z,8.35
2023-05-07T05:41:03.732Z,7.85
2023-05-07T05:43:27.600Z,9.73
2023-05-07T05:45:50.914Z,7.88
2023-05-07T05:48:14.288Z,5.95
2023-05-07T05:50:37.826Z,9.30
2023-05-07T05:53:02.756Z,8.55
2023-05-07T05:55:27.759Z,6.28
2023-05-07T05:57:51.756Z,7.78
2023-05-07T06:00:17.060Z,6.25
2023-05-07T06:02:43.873Z,6.65
2023-05-07T06:05:09.104Z,6.93
2023-05-07T06:07:32.461Z,7.35
2023-05-07T06:09:56.341Z,8.00
2023-05-07T06:12:21.529Z,6.50
2023-05-07T06:14:45.827Z,4.55
2023-05-07T06:17:09.836Z,6.50
2023-05-07T06:19:33.489Z,8.95
2023-05-07T06:21:58.208Z,8.27
2023-05-07T06:24:23.039Z,5.93
2023-05-07T06:26:46.502Z,7.30
2023-05-07T06:29:11.759Z,4.78
2023-05-07T06:31:37.415Z,6.22
2023-05-07T06:34:03.917Z,6.10
2023-05-07T06:36:33.967Z,6.18
2023-05-07T06:39:01.592Z,4.93
2023-05-07T06:41:24.826Z,6.03
2023-05-07T06:43:48.194Z,5.03
2023-05-07T06:46:42.456Z,7.20
2023-05-07T06:49:07.015Z,4.68
2023-05-07T06:51:30.296Z,4.97
2023-05-07T06:53:57.745Z,4.50
2023-05-07T06:56:21.134Z,5.35
2023-05-07T06:58:45.212Z,5.78
2023-05-07T07:01:09.093Z,4.13
2023-05-07T07:03:34.892Z,4.75
2023-05-07T07:05:58.473Z,5.43
2023-05-07T07:08:23.115Z,5.95
2023-05-07T07:10:47.436Z,4.22
2023-05-07T07:13:10.850Z,3.88
2023-05-07T07:15:34.282Z,4.55
2023-05-07T07:17:57.637Z,5.35
2023-05-07T07:20:22.973Z,5.68
2023-05-07T07:22:46.734Z,5.47
2023-05-07T07:25:12.139Z,4.18
2023-05-07T07:27:36.037Z,4.18
2023-05-07T07:29:59.780Z,4.40
2023-05-07T07:32:24.354Z,3.13
2023-05-07T07:34:48.324Z,4.13
2023-05-07T07:37:13.154Z,3.38
2023-05-07T07:39:38.629Z,4.15
2023-05-07T07:42:03.521Z,5.47
2023-05-07T07:44:27.602Z,4.22
2023-05-07T07:46:55.913Z,3.25
2023-05-07T07:49:20.772Z,4.45
2023-05-07T07:51:45.081Z,3.38
2023-05-07T07:54:10.965Z,5.32
2023-05-07T07:56:35.443Z,4.88
2023-05-07T07:59:00.729Z,2.85
2023-05-07T08:01:24.453Z,6.65
2023-05-07T08:03:48.052Z,5.57
2023-05-07T08:06:11.586Z,4.80
2023-05-07T08:08:35.025Z,4.43
2023-05-07T08:10:59.936Z,5.45
2023-05-07T08:13:28.452Z,3.45
2023-05-07T08:15:52.017Z,6.40
2023-05-07T08:18:16.115Z,3.47
2023-05-07T08:20:40.694Z,5.30
2023-05-07T08:23:07.991Z,3.60
2023-05-07T08:25:31.397Z,6.70
2023-05-07T08:27:57.576Z,4.13
2023-05-07T08:30:21.402Z,6.10
2023-05-07T08:32:44.986Z,5.32
2023-05-07T08:35:09.482Z,18.85
2023-05-07T08:37:32.816Z,8.32
2023-05-07T08:39:56.681Z,6.43
2023-05-07T08:42:26.874Z,3.97
2023-05-07T08:44:55.447Z,3.20
2023-05-07T08:47:22.250Z,3.78
2023-05-07T08:49:47.456Z,4.35
2023-05-07T08:52:11.600Z,3.00
2023-05-07T08:54:36.173Z,3.85
2023-05-07T08:57:00.431Z,4.28
2023-05-07T08:59:23.873Z,4.53
2023-05-07T09:01:49.309Z,20.30
2023-05-07T09:04:13.997Z,4.78
2023-05-07T09:06:39.064Z,2.63
2023-05-07T09:09:06.374Z,4.65
2023-05-07T09:11:30.540Z,4.90
2023-05-07T09:13:58.559Z,2.72
2023-05-07T09:16:24.166Z,4.18
2023-05-07T09:18:49.323Z,3.55
2023-05-07T09:21:13.214Z,5.63
2023-05-07T09:23:36.480Z,2.90
2023-05-07T09:26:03.200Z,4.43
2023-05-07T09:28:29.753Z,2.63
2023-05-07T09:30:53.027Z,3.25
2023-05-07T09:33:18.119Z,4.05
2023-05-07T09:35:46.991Z,6.28
2023-05-07T09:38:15.496Z,3.72
2023-05-07T09:40:40.942Z,4.57
2023-05-07T09:43:13.158Z,2.60
2023-05-07T09:45:43.070Z,3.17
2023-05-07T09:48:09.012Z,2.38
2023-05-07T09:50:39.176Z,2.63
2023-05-07T09:53:06.900Z,3.47
2023-05-07T09:55:31.080Z,6.90
2023-05-07T09:57:56.744Z,5.43
2023-05-07T10:00:22.208Z,3.13
2023-05-07T10:02:49.390Z,2.38
2023-05-07T10:05:16.336Z,2.83
2023-05-07T10:07:40.360Z,4.75
2023-05-07T10:10:09.620Z,2.05
2023-05-07T10:12:40.031Z,3.85
2023-05-07T10:15:11.583Z,1.88
2023-05-07T10:17:38.166Z,3.45
2023-05-07T10:20:04.285Z,1.90
2023-05-07T10:22:29.444Z,1.90
2023-05-07T10:24:56.459Z,2.45
2023-05-07T10:27:23.542Z,3.47
2023-05-07T10:30:02.841Z,1.88
2023-05-07T10:32:41.364Z,4.97
2023-05-07T10:35:13.138Z,3.80
2023-05-07T10:37:36.966Z,3.15
2023-05-07T10:40:00.771Z,2.35
2023-05-07T10:42:28.599Z,1.38
2023-05-07T10:44:53.371Z,5.07
2023-05-07T10:47:24.210Z,2.15
2023-05-07T10:50:23.034Z,3.97
2023-05-07T10:52:47.388Z,2.30
2023-05-07T10:55:25.995Z,2.38
2023-05-07T10:58:32.498Z,2.17
2023-05-07T11:01:54.717Z,2.92
2023-05-07T11:04:36.292Z,1.88
2023-05-07T11:07:40.891Z,2.97
2023-05-07T11:10:10.412Z,3.92
2023-05-07T11:12:57.095Z,2.67
2023-05-07T11:15:53.734Z,2.38
2023-05-07T11:18:49.273Z,1.98
2023-05-07T11:21:13.814Z,2.03
2023-05-07T11:24:12.197Z,2.97
2023-05-07T11:26:49.191Z,2.65
2023-05-07T11:29:14.541Z,2.95
2023-05-07T11:31:41.190Z,2.20
2023-05-07T11:34:06.061Z,2.92
2023-05-07T11:36:34.790Z,1.90
2023-05-07T11:39:03.104Z,2.63
2023-05-07T11:41:37.444Z,1.33
2023-05-07T11:44:01.938Z,1.52
2023-05-07T11:46:25.505Z,2.45
2023-05-07T11:48:50.487Z,2.15
2023-05-07T11:51:14.239Z,3.33
2023-05-07T11:53:40.288Z,3.22
2023-05-07T11:56:08.395Z,2.17
2023-05-07T11:58:32.108Z,2.42
2023-05-07T12:00:56.557Z,2.33
2023-05-07T12:03:20.155Z,5.20
2023-05-07T12:05:44.868Z,3.75
2023-05-07T12:08:08.211Z,2.67
2023-05-07T12:10:31.492Z,4.88
2023-05-07T12:12:54.829Z,2.25
2023-05-07T12:15:18.994Z,2.20
2023-05-07T12:17:42.965Z,3.53
2023-05-07T12:20:08.317Z,4.88
2023-05-07T12:22:33.518Z,4.55
2023-05-07T12:25:00.832Z,4.03
2023-05-07T12:27:24.301Z,3.63
2023-05-07T12:29:48.768Z,1.58
2023-05-07T12:32:17.162Z,5.07
2023-05-07T12:34:45.456Z,2.28
2023-05-07T12:37:09.114Z,4.45
2023-05-07T12:39:33.992Z,6.10
2023-05-07T12:41:57.985Z,2.58
2023-05-07T12:44:21.572Z,4.45
2023-05-07T12:46:44.962Z,3.17
2023-05-07T12:49:08.248Z,3.28
2023-05-07T12:51:31.636Z,3.72
2023-05-07T12:53:59.215Z,1.85
2023-05-07T12:56:24.215Z,2.90
2023-05-07T12:58:47.611Z,2.65
2023-05-07T13:01:16.398Z,2.10
2023-05-07T13:03:40.937Z,3.13
2023-05-07T13:06:07.172Z,4.82
2023-05-07T13:08:33.992Z,4.40
2023-05-07T13:10:57.494Z,3.00
2023-05-07T13:13:22.694Z,3.60
2023-05-07T13:15:46.137Z,5.45
2023-05-07T13:18:11.482Z,3.03
2023-05-07T13:20:34.826Z,4.53
2023-05-07T13:22:58.160Z,4.00
2023-05-07T13:25:21.601Z,5.82
2023-05-07T13:27:45.841Z,4.30
2023-05-07T13:30:11.854Z,3.22
2023-05-07T13:32:35.167Z,5.22
2023-05-07T13:34:58.593Z,3.05
2023-05-07T13:37:22.030Z,6.20
2023-05-07T13:39:45.676Z,3.20
2023-05-07T13:42:08.885Z,4.63
2023-05-07T13:44:32.176Z,4.70
2023-05-07T13:46:56.772Z,5.00
2023-05-07T13:49:20.202Z,6.25
2023-05-07T13:51:43.500Z,3.88
2023-05-07T13:54:06.884Z,3.42
2023-05-07T13:56:32.382Z,3.83
2023-05-07T13:58:59.900Z,5.95
2023-05-07T14:01:23.717Z,4.38
2023-05-07T14:03:48.868Z,4.55
2023-05-07T14:06:12.225Z,3.28
2023-05-07T14:08:35.608Z,3.63
2023-05-07T14:10:58.895Z,4.82
2023-05-07T14:13:22.229Z,3.35
2023-05-07T14:15:47.425Z,4.20
2023-05-07T14:18:11.069Z,5.10
2023-05-07T14:20:37.693Z,3.80
2023-05-07T14:23:01.061Z,3.85
2023-05-07T14:25:24.771Z,4.68
2023-05-07T14:27:48.975Z,3.97
2023-05-07T14:30:13.447Z,5.18
2023-05-07T14:32:36.879Z,5.00
2023-05-07T14:35:00.864Z,8.55
2023-05-07T14:37:26.098Z,8.25
2023-05-07T14:39:50.233Z,6.80
2023-05-07T14:42:14.224Z,8.18
2023-05-07T14:44:37.709Z,8.40
2023-05-07T14:47:02.203Z,9.52
2023-05-07T14:49:25.941Z,6.55
2023-05-07T14:51:49.810Z,8.18
2023-05-07T14:54:14.485Z,6.75
2023-05-07T14:56:37.998Z,8.90
2023-05-07T14:59:01.417Z,6.57
2023-05-07T15:01:24.721Z,11.52
2023-05-07T15:03:48.256Z,7.30
2023-05-07T15:06:11.634Z,7.38
2023-05-07T15:08:35.254Z,6.90
2023-05-07T15:10:59.970Z,9.20
2023-05-07T15:13:23.601Z,9.50
2023-05-07T15:15:47.410Z,8.63
2023-05-07T15:18:10.748Z,10.82
2023-05-07T15:20:34.243Z,9.77
2023-05-07T15:22:57.931Z,7.03
2023-05-07T15:25:21.630Z,8.85
2023-05-07T15:27:46.547Z,8.90
2023-05-07T15:30:11.900Z,8.32
2023-05-07T15:32:35.192Z,8.50
2023-05-07T15:34:58.951Z,11.52
2023-05-07T15:37:22.112Z,8.73
2023-05-07T15:39:45.382Z,8.95
2023-05-07T15:42:08.696Z,8.70
2023-05-07T15:44:35.435Z,8.05
2023-05-07T15:47:00.492Z,8.52
2023-05-07T15:49:23.925Z,10.75
2023-05-07T15:51:47.182Z,7.63
2023-05-07T15:54:10.484Z,11.02
2023-05-07T15:56:34.271Z,10.15
2023-05-07T15:58:58.258Z,9.70
2023-05-07T16:01:25.340Z,10.75
2023-05-07T16:03:49.354Z,11.70
2023-05-07T16:06:13.041Z,10.82
2023-05-07T16:08:36.387Z,9.45
2023-05-07T16:10:59.637Z,10.80
2023-05-07T16:13:24.906Z,13.50
2023-05-07T16:15:49.110Z,13.40
2023-05-07T16:18:16.173Z,16.27
2023-05-07T16:20:39.849Z,12.32
2023-05-07T16:23:03.174Z,12.20
2023-05-07T16:25:26.398Z,12.18
2023-05-07T16:27:49.903Z,11.98
2023-05-07T16:30:14.007Z,12.73
2023-05-07T16:32:37.308Z,10.75
2023-05-07T16:35:02.029Z,11.90
2023-05-07T16:37:25.453Z,17.98
2023-05-07T16:39:48.766Z,11.35
2023-05-07T16:42:12.040Z,9.48
2023-05-07T16:44:35.321Z,11.15
2023-05-07T16:46:58.577Z,11.52
2023-05-07T16:49:21.958Z,11.02
2023-05-07T16:51:47.083Z,9.73
2023-05-07T16:54:10.770Z,8.48
2023-05-07T16:56:34.470Z,9.35
2023-05-07T16:58:57.774Z,9.80
2023-05-07T17:01:21.013Z,9.80
2023-05-07T17:03:44.449Z,10.13
2023-05-07T17:06:12.961Z,10.80
2023-05-07T17:08:38.130Z,11.00
2023-05-07T17:11:02.463Z,10.82
2023-05-07T17:13:25.928Z,9.43
2023-05-07T17:15:49.371Z,13.18
2023-05-07T17:18:12.770Z,12.20
2023-05-07T17:20:36.294Z,12.10
2023-05-07T17:22:59.916Z,12.70
2023-05-07T17:25:24.904Z,11.73
2023-05-07T17:27:48.094Z,14.35
2023-05-07T17:30:13.099Z,10.23
2023-05-07T17:32:36.901Z,10.68
2023-05-07T17:35:00.661Z,10.45
2023-05-07T17:37:24.000Z,10.73
2023-05-07T17:39:48.799Z,12.27
2023-05-07T17:42:13.426Z,9.95
2023-05-07T17:44:36.923Z,12.63
2023-05-07T17:47:00.190Z,10.77
2023-05-07T17:49:23.495Z,17.13
2023-05-07T17:51:54.903Z,35.83
2023-05-07T17:54:19.025Z,46.88
2023-05-07T17:56:42.481Z,26.30
2023-05-07T17:59:07.238Z,12.45
2023-05-07T18:01:30.945Z,14.43
2023-05-07T18:03:54.358Z,11.68
2023-05-07T18:06:20.202Z,15.82
2023-05-07T18:08:43.463Z,10.48
2023-05-07T18:11:06.706Z,11.18
2023-05-07T18:13:30.042Z,12.75
2023-05-07T18:15:55.168Z,11.90
2023-05-07T18:18:19.133Z,14.20
2023-05-07T18:20:42.450Z,16.35
2023-05-07T18:23:05.790Z,14.77
2023-05-07T18:25:29.162Z,12.45
2023-05-07T18:27:52.469Z,14.63
2023-05-07T18:30:16.168Z,12.68
2023-05-07T18:32:40.871Z,12.52
2023-05-07T18:35:04.346Z,11.25
2023-05-07T18:37:27.712Z,12.43
2023-05-07T18:39:51.049Z,8.65
2023-05-07T18:42:14.538Z,10.13
2023-05-07T18:44:38.565Z,11.73
2023-05-07T18:47:01.852Z,8.30
2023-05-07T18:49:26.595Z,7.75
2023-05-07T18:51:50.337Z,9.20
2023-05-07T18:54:13.560Z,9.00
2023-05-07T18:56:36.814Z,9.20
2023-05-07T18:59:00.236Z,9.25
2023-05-07T19:01:23.555Z,7.18
2023-05-07T19:03:46.864Z,7.55
2023-05-07T19:06:11.499Z,7.78
2023-05-07T19:08:34.736Z,10.35
2023-05-07T19:10:58.007Z,9.05
2023-05-07T19:13:23.416Z,8.35
2023-05-07T19:15:46.813Z,9.05
2023-05-07T19:18:10.125Z,8.35
2023-05-07T19:20:33.695Z,8.40
2023-05-07T19:22:58.344Z,11.02
2023-05-07T19:25:21.751Z,12.60
2023-05-07T19:27:45.110Z,9.45
2023-05-07T19:30:10.915Z,12.65
2023-05-07T19:32:34.169Z,14.07
2023-05-07T19:34:57.593Z,13.27
2023-05-07T19:37:23.989Z,11.35
2023-05-07T19:39:48.714Z,10.75
2023-05-07T19:42:13.292Z,12.13
2023-05-07T19:44:36.624Z,8.27
2023-05-07T19:47:02.465Z,10.07
2023-05-07T19:49:26.234Z,9.52
2023-05-07T19:51:49.576Z,10.15
2023-05-07T19:54:13.079Z,9.75
2023-05-07T19:56:37.803Z,9.80
2023-05-07T19:59:01.088Z,9.48
2023-05-07T20:01:25.063Z,10.15
2023-05-07T20:03:48.407Z,10.05
2023-05-07T20:06:12.035Z,10.25
2023-05-07T20:08:35.822Z,10.70
2023-05-07T20:11:00.766Z,11.77
2023-05-07T20:13:26.901Z,12.27
2023-05-07T20:15:50.445Z,11.65
2023-05-07T20:18:15.210Z,13.15
2023-05-07T20:20:38.597Z,11.30
2023-05-07T20:23:01.898Z,11.02
2023-05-07T20:25:25.399Z,11.70
2023-05-07T20:27:48.662Z,11.10
2023-05-07T20:30:15.082Z,11.15
2023-05-07T20:32:38.652Z,10.55
2023-05-07T20:35:02.062Z,9.65
2023-05-07T20:37:26.235Z,10.90
2023-05-07T20:39:52.001Z,12.15
2023-05-07T20:42:15.241Z,9.80
2023-05-07T20:44:38.880Z,9.82
2023-05-07T20:47:04.358Z,9.05
2023-05-07T20:49:27.624Z,8.88
2023-05-07T20:51:51.020Z,9.35
2023-05-07T20:54:14.614Z,10.35
2023-05-07T20:56:37.875Z,12.63
2023-05-07T20:59:01.667Z,11.90
2023-05-07T21:01:25.065Z,10.73
2023-05-07T21:03:50.188Z,13.77
2023-05-07T21:06:13.465Z,11.45
2023-05-07T21:08:36.687Z,12.45
2023-05-07T21:11:00.262Z,12.70
2023-05-07T21:13:23.994Z,11.55
2023-05-07T21:15:47.532Z,10.88
2023-05-07T21:18:11.000Z,10.45
2023-05-07T21:20:36.165Z,9.45
2023-05-07T21:22:59.513Z,9.85
2023-05-07T21:25:22.740Z,10.88
2023-05-07T21:27:46.100Z,9.32
2023-05-07T21:30:11.514Z,10.18
2023-05-07T21:32:35.143Z,11.70
2023-05-07T21:34:59.572Z,9.75
2023-05-07T21:37:24.262Z,10.35
2023-05-07T21:39:47.534Z,10.57
2023-05-07T21:42:10.822Z,10.93
2023-05-07T21:44:34.015Z,9.85
2023-05-07T21:46:57.332Z,9.68
2023-05-07T21:49:20.734Z,9.95
2023-05-07T21:51:43.949Z,9.05
2023-05-07T21:54:08.599Z,9.75
2023-05-07T21:56:31.857Z,12.10
2023-05-07T21:58:55.088Z,9.85
2023-05-07T22:01:18.389Z,10.90
2023-05-07T22:03:41.842Z,12.60
2023-05-07T22:06:06.011Z,11.73
2023-05-07T22:08:29.318Z,11.30
2023-05-07T22:10:54.337Z,9.02
2023-05-07T22:13:17.656Z,10.55
2023-05-07T22:15:53.066Z,11.77
2023-05-07T22:18:20.071Z,11.52
2023-05-07T22:20:43.304Z,10.90
2023-05-07T22:23:06.615Z,10.38
2023-05-07T22:25:34.680Z,10.48
2023-05-07T22:27:59.301Z,10.98
2023-05-07T22:30:22.944Z,11.43
2023-05-07T22:32:47.151Z,10.18
2023-05-07T22:35:11.703Z,12.75
2023-05-07T22:37:35.229Z,11.80
2023-05-07T22:39:58.724Z,12.80
2023-05-07T22:42:22.030Z,10.65
2023-05-07T22:44:46.876Z,11.65
2023-05-07T22:47:10.139Z,11.48
2023-05-07T22:49:35.562Z,14.80
2023-05-07T22:51:58.896Z,12.27
2023-05-07T22:54:23.665Z,15.32
2023-05-07T22:56:48.535Z,20.30
2023-05-07T22:59:11.816Z,17.55
2023-05-07T23:01:36.531Z,16.70
2023-05-07T23:03:59.966Z,16.35
2023-05-07T23:06:23.744Z,14.93
2023-05-07T23:08:47.182Z,15.98
2023-05-07T23:11:10.684Z,12.50
2023-05-07T23:13:34.050Z,12.82
2023-05-07T23:15:58.782Z,12.98
2023-05-07T23:18:23.396Z,12.25
2023-05-07T23:20:46.620Z,11.73
2023-05-07T23:23:09.907Z,11.65
2023-05-07T23:25:33.750Z,11.88
2023-05-07T23:27:57.136Z,14.90
2023-05-07T23:30:20.646Z,15.80
2023-05-07T23:32:43.957Z,14.45
2023-05-07T23:35:10.478Z,14.73
2023-05-07T23:37:34.031Z,13.82
2023-05-07T23:39:57.423Z,13.95
2023-05-07T23:42:20.691Z,12.80
2023-05-07T23:44:44.205Z,14.13
2023-05-07T23:47:07.525Z,13.48
2023-05-07T23:49:30.790Z,16.45
2023-05-07T23:51:55.778Z,15.52
2023-05-07T23:54:19.533Z,14.63
2023-05-07T23:56:43.066Z,14.70
2023-05-07T23:59:06.336Z,13.57
